Time;durP1;ratioP1;P1;durP2;ratioP2;P2;SDS_P1;SDS_P2;PMS_P1;PMS_P2;Temp;Humidity;BMP_temperature;BMP_pressure;BME280_temperature;BME280_humidity;BME280_pressure;Samples;Min_cycle;Max_cycle;Signal;HPM_P1;HPM_P2
2022/03/29 00:02:19;;;;;;;35.03;19.27;;;;;;;12.17;53.67;99949.75;5052021;28;20413;-37
2022/03/29 00:04:45;;;;;;;34.15;19.50;;;;;;;11.34;56.55;99941.13;5048923;28;20472;-37
2022/03/29 00:07:10;;;;;;;38.75;21.65;;;;;;;11.02;57.58;99947.22;5051726;28;20099;-37
2022/03/29 00:09:36;;;;;;;39.25;21.02;;;;;;;12.02;54.76;99942.78;5051984;28;20024;-38
2022/03/29 00:12:01;;;;;;;38.17;19.42;;;;;;;11.66;55.29;99940.53;5051695;28;20480;-38
2022/03/29 00:14:27;;;;;;;33.90;20.00;;;;;;;11.11;57.05;99932.72;5051730;28;20024;-37
2022/03/29 00:16:53;;;;;;;34.47;20.02;;;;;;;12.01;54.74;99938.47;5051421;28;20045;-38
2022/03/29 00:19:19;;;;;;;32.83;18.85;;;;;;;12.16;53.55;99932.91;5051593;28;20017;-38
2022/03/29 00:21:45;;;;;;;34.72;19.60;;;;;;;11.51;56.02;99943.41;5051504;28;20025;-38
2022/03/29 00:24:10;;;;;;;32.80;20.27;;;;;;;11.34;56.63;99929.66;5051351;28;20017;-38
2022/03/29 00:26:36;;;;;;;37.65;19.73;;;;;;;12.30;53.61;99928.38;5051260;28;20193;-38
2022/03/29 00:29:02;;;;;;;36.15;19.65;;;;;;;11.74;54.88;99932.31;5051313;28;20009;-38
2022/03/29 00:31:27;;;;;;;34.53;20.80;;;;;;;11.11;56.86;99924.72;5050708;28;20085;-38
2022/03/29 00:33:53;;;;;;;38.78;21.67;;;;;;;11.86;55.24;99933.34;5051406;28;20100;-37
2022/03/29 00:36:18;;;;;;;37.25;21.10;;;;;;;12.01;54.30;99930.47;5051153;28;20017;-37
2022/03/29 00:38:46;;;;;;;38.72;21.38;;;;;;;11.28;56.72;99931.28;5050943;28;20158;-37
2022/03/29 00:41:12;;;;;;;38.53;21.70;;;;;;;11.47;56.45;99935.00;5051143;28;20029;-37
2022/03/29 00:43:37;;;;;;;34.63;20.45;;;;;;;12.07;54.15;99931.47;5050991;28;20048;-38
2022/03/29 00:46:03;;;;;;;39.03;19.88;;;;;;;11.34;55.62;99916.34;5051524;28;20091;-37
2022/03/29 00:48:29;;;;;;;36.13;20.15;;;;;;;10.82;57.98;99925.88;5050594;28;20112;-37
2022/03/29 00:50:56;;;;;;;33.53;19.02;;;;;;;11.19;56.82;99921.84;5051374;28;20102;-37
2022/03/29 00:53:23;;;;;;;35.95;18.63;;;;;;;11.51;55.74;99914.91;5050956;28;20025;-37
2022/03/29 00:55:49;;;;;;;34.22;18.67;;;;;;;11.04;56.94;99914.06;5050690;28;20017;-37
2022/03/29 00:58:16;;;;;;;33.65;18.60;;;;;;;11.02;57.17;99902.78;5050578;28;20020;-37
2022/03/29 01:00:42;;;;;;;29.27;17.30;;;;;;;11.82;55.15;99910.81;5051080;28;20370;-37
2022/03/29 01:03:07;;;;;;;33.95;17.83;;;;;;;11.33;55.70;99904.06;5050599;28;20042;-38
2022/03/29 01:05:33;;;;;;;33.10;17.30;;;;;;;10.78;57.89;99906.03;5050757;28;20132;-37
2022/03/29 01:08:00;;;;;;;31.67;18.23;;;;;;;11.34;55.97;99903.00;5050790;28;20520;-37
2022/03/29 01:10:26;;;;;;;29.42;16.67;;;;;;;11.37;55.67;99891.16;5047836;28;20025;-37
2022/03/29 01:12:54;;;;;;;28.88;16.95;;;;;;;10.78;56.95;99898.03;5050664;28;20027;-37
2022/03/29 01:15:22;;;;;;;33.85;19.98;;;;;;;11.13;56.79;99891.53;5050733;28;20123;-37
2022/03/29 01:17:49;;;;;;;32.97;18.85;;;;;;;11.64;54.87;99878.63;5048229;28;20020;-37
2022/03/29 01:20:24;;;;;;;36.33;18.30;;;;;;;10.91;57.44;99869.59;5050557;28;20117;-38
2022/03/29 01:22:51;;;;;;;32.58;18.80;;;;;;;10.63;58.42;99885.69;5048861;28;20098;-37
2022/03/29 01:25:26;;;;;;;33.08;19.60;;;;;;;10.93;58.03;99874.72;5050782;28;20021;-37
2022/03/29 01:27:53;;;;;;;32.60;18.60;;;;;;;11.23;56.44;99864.50;5049317;28;20021;-37
2022/03/29 01:30:20;;;;;;;31.40;18.40;;;;;;;10.96;57.65;99869.78;5050354;28;20092;-37
2022/03/29 01:32:49;;;;;;;29.67;17.90;;;;;;;10.73;58.27;99859.50;5050754;28;20021;-37
2022/03/29 01:35:18;;;;;;;33.92;18.58;;;;;;;10.88;57.21;99856.66;5050372;28;20078;-37
2022/03/29 01:37:44;;;;;;;;;;;;;;;10.75;57.64;99856.66;5051077;28;20396;-37
2022/03/29 01:40:15;;;;;;;35.10;17.98;;;;;;;10.69;57.91;99850.28;5050493;28;19908;-37
2022/03/29 01:42:47;;;;;;;30.35;17.35;;;;;;;10.67;57.62;99847.00;5050592;28;20032;-37
2022/03/29 01:45:13;;;;;;;33.13;17.65;;;;;;;10.49;58.29;99852.06;5050977;28;20071;-37
2022/03/29 01:47:38;;;;;;;28.92;17.45;;;;;;;10.39;59.33;99852.44;5050686;28;20489;-37
2022/03/29 01:50:04;;;;;;;30.00;17.80;;;;;;;10.32;59.69;99839.16;5050927;28;20021;-37
2022/03/29 01:52:38;;;;;;;33.08;18.30;;;;;;;10.36;59.09;99829.75;5050381;28;20112;-37
2022/03/29 01:55:03;;;;;;;32.33;19.25;;;;;;;10.22;59.74;99838.66;5050848;28;20060;-37
2022/03/29 01:57:29;;;;;;;34.70;18.65;;;;;;;10.10;60.60;99843.72;5050606;28;20477;-37
2022/03/29 02:02:39;;;;;;;29.63;17.52;;;;;;;10.05;60.96;99827.56;5050763;28;20032;-37
2022/03/29 02:05:04;;;;;;;31.45;18.10;;;;;;;9.83;61.32;99816.19;5050521;28;20025;-37
2022/03/29 02:07:30;;;;;;;32.55;18.83;;;;;;;9.82;61.43;99821.69;5051299;28;20587;-37
2022/03/29 02:09:56;;;;;;;36.97;19.55;;;;;;;9.96;60.87;99816.25;5054536;28;20060;-37
2022/03/29 02:12:21;;;;;;;32.40;19.00;;;;;;;9.98;60.93;99816.88;5054456;28;20120;-37
2022/03/29 02:14:46;;;;;;;33.90;18.80;;;;;;;9.93;61.00;99807.84;5054288;28;20083;-37
2022/03/29 02:17:12;;;;;;;36.30;18.90;;;;;;;10.03;60.49;99813.63;5054555;28;20025;-37
2022/03/29 02:19:37;;;;;;;32.67;18.77;;;;;;;10.00;61.17;99807.91;5054649;28;20025;-38
2022/03/29 02:22:03;;;;;;;40.00;20.05;;;;;;;9.77;62.07;99801.03;5054419;28;20032;-38
2022/03/29 02:24:29;;;;;;;33.22;19.25;;;;;;;9.70;61.91;99805.50;5053792;28;20025;-38
2022/03/29 02:26:54;;;;;;;33.65;19.67;;;;;;;9.69;62.20;99803.84;5053891;28;20055;-38
2022/03/29 02:29:19;;;;;;;38.20;20.90;;;;;;;9.70;61.99;99801.00;5054387;28;20032;-38
2022/03/29 02:31:45;;;;;;;35.35;19.50;;;;;;;9.54;62.46;99801.31;5054078;28;20025;-38
2022/03/29 02:34:10;;;;;;;34.00;19.50;;;;;;;9.41;62.60;99799.41;5053643;28;20017;-37
2022/03/29 02:36:36;;;;;;;32.00;19.05;;;;;;;9.41;62.98;99799.41;5054149;28;20028;-37
2022/03/29 02:39:01;;;;;;;41.22;20.05;;;;;;;9.29;63.54;99790.31;5053889;28;20009;-37
2022/03/29 02:41:27;;;;;;;38.03;19.42;;;;;;;9.13;63.36;99799.41;5053774;28;20051;-36
2022/03/29 02:43:52;;;;;;;33.50;19.65;;;;;;;9.09;63.88;99803.44;5053567;28;20101;-37
2022/03/29 02:46:19;;;;;;;35.17;18.75;;;;;;;8.98;63.77;99802.94;5053505;28;20047;-37
2022/03/29 02:48:44;;;;;;;39.38;21.45;;;;;;;8.90;64.07;99792.47;5054006;28;20025;-37
2022/03/29 02:51:10;;;;;;;39.25;21.30;;;;;;;8.67;64.62;99795.31;5053839;28;20028;-37
2022/03/29 02:53:35;;;;;;;40.38;21.73;;;;;;;8.73;64.74;99793.75;5053701;28;20017;-38
2022/03/29 02:56:01;;;;;;;42.53;20.88;;;;;;;8.65;64.52;99789.41;5053215;28;20047;-37
2022/03/29 02:58:26;;;;;;;39.65;20.70;;;;;;;8.66;65.01;99774.28;5053346;28;20029;-37
2022/03/29 03:00:52;;;;;;;38.03;21.55;;;;;;;8.74;64.90;99790.09;5053766;28;20021;-38
2022/03/29 03:03:18;;;;;;;49.72;22.08;;;;;;;8.71;64.77;99775.34;5053498;28;20013;-37
2022/03/29 03:05:44;;;;;;;39.80;22.17;;;;;;;8.74;64.77;99764.38;5053150;28;20110;-37
2022/03/29 03:08:10;;;;;;;45.17;22.48;;;;;;;8.87;64.16;99771.63;5053259;28;20037;-37
2022/03/29 03:10:35;;;;;;;39.40;21.55;;;;;;;8.76;64.70;99772.97;5053451;28;20114;-38
2022/03/29 03:13:00;;;;;;;37.65;21.80;;;;;;;8.97;63.87;99773.97;5053357;28;20128;-37
2022/03/29 03:15:27;;;;;;;41.95;22.67;;;;;;;8.90;63.96;99773.88;5053375;28;20028;-38
2022/03/29 03:17:55;;;;;;;40.25;22.10;;;;;;;8.99;63.98;99777.25;5053155;28;20027;-37
2022/03/29 03:20:22;;;;;;;42.67;21.73;;;;;;;8.84;64.18;99773.84;5052348;28;20116;-37
2022/03/29 03:22:48;;;;;;;40.03;21.15;;;;;;;8.33;65.98;99772.91;5053318;28;20143;-37
2022/03/29 03:25:13;;;;;;;39.92;21.85;;;;;;;8.15;66.37;99764.59;5053086;28;20483;-37
2022/03/29 03:27:40;;;;;;;41.75;22.30;;;;;;;8.40;65.81;99759.75;5052759;28;20112;-37
2022/03/29 03:30:08;;;;;;;44.63;22.23;;;;;;;8.45;66.03;99769.81;5053069;28;20033;-37
2022/03/29 03:32:34;;;;;;;43.22;21.30;;;;;;;8.27;65.79;99773.69;5052945;28;20035;-37
2022/03/29 03:34:59;;;;;;;79.53;41.30;;;;;;;8.27;66.05;99767.56;5052261;28;20397;-36
2022/03/29 03:37:26;;;;;;;112.55;56.28;;;;;;;8.22;65.91;99763.66;5051460;28;20025;-37
2022/03/29 03:39:52;;;;;;;122.35;59.10;;;;;;;8.34;66.01;99773.72;5051235;28;20025;-37
2022/03/29 03:42:18;;;;;;;72.78;38.05;;;;;;;8.34;66.18;99774.56;5051064;28;20039;-37
2022/03/29 03:44:44;;;;;;;46.70;23.13;;;;;;;8.43;66.12;99774.47;5051549;28;20025;-38
2022/03/29 03:47:10;;;;;;;45.25;22.75;;;;;;;8.37;67.04;99782.13;5051665;28;20016;-38
2022/03/29 03:49:36;;;;;;;45.47;22.63;;;;;;;8.18;66.52;99783.56;5050892;28;20039;-38
2022/03/29 03:52:02;;;;;;;45.45;23.20;;;;;;;8.34;67.25;99785.19;5052032;28;20104;-37
2022/03/29 03:54:27;;;;;;;43.67;23.58;;;;;;;8.47;66.24;99773.09;5052306;28;20107;-37
2022/03/29 03:56:52;;;;;;;55.35;24.77;;;;;;;8.72;64.88;99781.47;5052459;28;20465;-38
2022/03/29 03:59:18;;;;;;;41.67;23.27;;;;;;;8.64;65.17;99787.75;5052051;28;20051;-38
2022/03/29 04:01:44;;;;;;;52.13;23.73;;;;;;;8.66;65.17;99776.94;5052560;28;20377;-38
2022/03/29 04:04:09;;;;;;;45.08;23.23;;;;;;;8.80;64.62;99782.19;5052231;28;20133;-37
2022/03/29 04:06:35;;;;;;;49.30;22.83;;;;;;;8.76;64.59;99777.47;5052076;28;20112;-38
2022/03/29 04:09:00;;;;;;;44.45;22.77;;;;;;;8.57;64.85;99782.38;5052307;28;20025;-37
2022/03/29 04:11:26;;;;;;;48.70;23.05;;;;;;;8.48;65.91;99782.69;5051838;28;20070;-38
2022/03/29 04:13:52;;;;;;;42.22;22.08;;;;;;;8.55;65.46;99779.09;5051283;28;20025;-37
2022/03/29 04:16:17;;;;;;;49.67;22.15;;;;;;;8.41;66.20;99780.81;5051997;28;20176;-37
2022/03/29 04:18:43;;;;;;;44.03;21.80;;;;;;;8.31;66.68;99782.91;5051861;28;20044;-37
2022/03/29 04:21:09;;;;;;;45.45;22.48;;;;;;;8.37;66.61;99781.31;5052046;28;20021;-36
2022/03/29 04:23:35;;;;;;;45.03;22.50;;;;;;;8.49;66.18;99777.22;5052466;28;20079;-38
2022/03/29 04:26:02;;;;;;;50.95;24.23;;;;;;;8.48;66.10;99772.09;5052913;28;20021;-38
2022/03/29 04:28:27;;;;;;;50.95;23.90;;;;;;;8.33;66.85;99772.09;5052708;28;20437;-37
2022/03/29 04:30:55;;;;;;;48.92;23.60;;;;;;;8.50;67.92;99783.31;5052343;28;20443;-41
2022/03/29 04:33:21;;;;;;;57.08;27.00;;;;;;;8.56;66.55;99779.91;5052352;28;20496;-39
2022/03/29 04:35:47;;;;;;;65.03;27.30;;;;;;;8.63;65.84;99782.66;5050997;28;20369;-37
2022/03/29 04:38:12;;;;;;;82.47;44.17;;;;;;;8.59;66.60;99777.72;5050642;28;20025;-37
2022/03/29 04:40:38;;;;;;;167.32;80.18;;;;;;;8.60;66.60;99783.81;5050769;28;20028;-37
2022/03/29 04:43:03;;;;;;;72.72;39.60;;;;;;;8.85;70.19;99791.41;5050317;28;20017;-37
2022/03/29 04:45:29;;;;;;;52.28;24.27;;;;;;;8.97;64.80;99787.22;5050232;28;20017;-38
2022/03/29 04:47:54;;;;;;;42.88;22.98;;;;;;;9.00;65.40;99770.91;5050588;28;20020;-38
2022/03/29 04:50:20;;;;;;;107.15;47.75;;;;;;;9.13;66.42;99772.84;5050121;28;20049;-38
2022/03/29 04:52:46;;;;;;;48.15;23.90;;;;;;;9.27;66.91;99776.41;5050161;28;20033;-38
2022/03/29 04:55:13;;;;;;;44.97;23.77;;;;;;;9.50;66.07;99784.94;5049847;28;20067;-38
2022/03/29 04:57:41;;;;;;;47.13;25.35;;;;;;;9.73;64.74;99784.66;5050172;28;20021;-38
2022/03/29 05:00:08;;;;;;;61.38;28.35;;;;;;;9.93;64.39;99789.25;5049653;28;20480;-36
2022/03/29 05:02:35;;;;;;;79.88;38.50;;;;;;;10.08;62.02;99786.44;5049484;28;20028;-39
2022/03/29 05:05:01;;;;;;;58.85;29.13;;;;;;;10.09;63.34;99790.72;5048188;28;20033;-38
2022/03/29 05:07:28;;;;;;;62.95;32.65;;;;;;;10.22;63.21;99789.97;5049861;28;20049;-37
2022/03/29 05:09:54;;;;;;;109.75;57.60;;;;;;;10.43;61.98;99781.03;5037421;28;20029;-39
2022/03/29 05:12:20;;;;;;;92.65;47.30;;;;;;;10.47;61.36;99777.78;5032612;28;20210;-38
2022/03/29 05:14:45;;;;;;;91.55;49.50;;;;;;;10.54;61.19;99775.94;5049063;28;20704;-39
2022/03/29 05:17:11;;;;;;;70.13;30.90;;;;;;;10.36;60.66;99773.06;5049510;28;20733;-39
2022/03/29 05:19:36;;;;;;;71.22;29.27;;;;;;;10.45;60.57;99781.66;5049653;28;20013;-39
2022/03/29 05:22:02;;;;;;;64.10;28.70;;;;;;;10.44;61.40;99778.19;5049355;28;20024;-40
2022/03/29 05:24:28;;;;;;;57.85;29.42;;;;;;;10.60;60.48;99781.50;5048826;28;20017;-37
2022/03/29 05:26:53;;;;;;;56.17;27.92;;;;;;;10.58;60.00;99781.69;5048806;28;20112;-37
2022/03/29 05:29:19;;;;;;;61.10;30.23;;;;;;;10.61;60.44;99788.47;5049003;28;20036;-37
2022/03/29 05:31:45;;;;;;;60.83;29.55;;;;;;;10.69;59.76;99793.59;5048779;28;20559;-39
2022/03/29 05:34:10;;;;;;;53.90;26.85;;;;;;;10.67;59.84;99793.78;5049167;28;20032;-38
2022/03/29 05:36:36;;;;;;;58.05;27.25;;;;;;;10.64;59.96;99796.03;5049953;28;20025;-37
2022/03/29 05:39:03;;;;;;;61.90;28.70;;;;;;;11.08;58.86;99790.13;5049623;28;20028;-38
2022/03/29 05:41:29;;;;;;;49.15;27.15;;;;;;;11.25;57.69;99792.34;5049864;28;20103;-37
2022/03/29 05:43:55;;;;;;;56.72;27.80;;;;;;;11.03;58.86;99789.91;5052608;28;20152;-37
2022/03/29 05:49:04;;;;;;;56.40;25.70;;;;;;;11.43;58.24;99789.06;5053883;28;20123;-38
2022/03/29 05:51:31;;;;;;;61.83;27.92;;;;;;;11.84;56.52;99785.25;5053905;28;20477;-38
2022/03/29 05:53:58;;;;;;;60.45;26.27;;;;;;;12.29;54.89;99790.63;5053441;28;20028;-37
2022/03/29 05:56:23;;;;;;;58.58;26.60;;;;;;;12.40;54.14;99787.28;5053965;28;20028;-36
2022/03/29 05:58:50;;;;;;;50.75;25.65;;;;;;;12.65;53.30;99794.53;5053546;28;20021;-37
2022/03/29 06:01:15;;;;;;;49.10;26.35;;;;;;;12.68;53.52;99791.44;5053327;28;20086;-38
2022/03/29 06:03:41;;;;;;;52.83;25.02;;;;;;;13.09;52.14;99788.22;5053030;28;20017;-38
2022/03/29 06:06:06;;;;;;;49.88;25.13;;;;;;;13.36;52.30;99788.00;5053482;28;20056;-38
2022/03/29 06:08:32;;;;;;;50.92;25.17;;;;;;;13.60;50.65;99793.56;5053871;28;20029;-38
2022/03/29 06:11:01;;;;;;;54.63;24.45;;;;;;;13.70;50.60;99783.13;5053789;28;20489;-38
2022/03/29 06:13:26;;;;;;;51.17;24.52;;;;;;;13.87;50.15;99783.38;5053520;28;20460;-38
2022/03/29 06:15:53;;;;;;;51.95;25.35;;;;;;;14.90;47.99;99778.88;5053533;28;20048;-37
2022/03/29 06:18:19;;;;;;;91.25;44.75;;;;;;;15.09;46.37;99779.59;5053051;28;20032;-38
2022/03/29 06:20:45;;;;;;;80.10;41.88;;;;;;;14.88;46.98;99775.59;5053440;28;20025;-38
2022/03/29 06:23:11;;;;;;;56.03;26.92;;;;;;;14.79;47.67;99763.59;5053545;28;20028;-38
2022/03/29 06:25:36;;;;;;;45.00;24.63;;;;;;;14.98;47.27;99773.19;5053710;28;20028;-37
2022/03/29 06:28:02;;;;;;;50.03;24.77;;;;;;;15.49;46.59;99770.84;5053739;28;20491;-38
2022/03/29 06:30:28;;;;;;;51.17;24.10;;;;;;;16.73;42.91;99764.09;5053165;28;20036;-38
2022/03/29 06:32:54;;;;;;;49.92;25.13;;;;;;;16.49;43.26;99765.31;5053351;28;20021;-38
2022/03/29 06:35:24;;;;;;;61.97;26.60;;;;;;;16.23;43.35;99770.22;5052663;28;20032;-38
2022/03/29 06:37:51;;;;;;;54.08;26.52;;;;;;;16.13;43.66;99767.34;5053069;28;20025;-38
2022/03/29 06:40:17;;;;;;;47.75;25.33;;;;;;;16.42;43.71;99763.59;5052666;28;20516;-37
2022/03/29 06:42:43;;;;;;;52.72;25.67;;;;;;;16.51;43.65;99760.53;5052907;28;20052;-37
2022/03/29 06:45:10;;;;;;;54.05;25.85;;;;;;;17.25;42.27;99755.00;5052906;28;20477;-38
2022/03/29 06:47:35;;;;;;;50.08;25.63;;;;;;;18.20;39.98;99767.50;5052534;28;20020;-37
2022/03/29 06:50:01;;;;;;;54.88;25.55;;;;;;;17.75;39.75;99759.44;5051605;28;20430;-38
2022/03/29 06:52:29;;;;;;;51.53;26.50;;;;;;;17.68;39.98;99748.03;5052560;28;20029;-38
2022/03/29 06:54:54;;;;;;;63.40;26.10;;;;;;;17.25;39.83;99746.09;5051627;28;20496;-37
2022/03/29 06:57:20;;;;;;;54.92;25.17;;;;;;;17.85;39.45;99739.91;5052602;28;20025;-38
2022/03/29 06:59:45;;;;;;;45.45;23.02;;;;;;;17.96;38.55;99748.94;5052966;28;20021;-37
2022/03/29 07:02:11;;;;;;;41.78;22.40;;;;;;;17.12;40.16;99753.47;5052758;28;20031;-38
2022/03/29 07:04:37;;;;;;;48.58;22.35;;;;;;;17.45;39.85;99750.97;5052406;28;20036;-37
2022/03/29 07:07:03;;;;;;;32.22;16.65;;;;;;;17.48;39.58;99747.78;5052659;28;20404;-38
2022/03/29 07:12:13;;;;;;;28.63;15.60;;;;;;;17.73;37.78;99744.59;5051905;28;20039;-38
2022/03/29 07:14:39;;;;;;;29.85;15.85;;;;;;;18.57;36.92;99743.34;5052219;28;20066;-38
2022/03/29 07:17:11;;;;;;;23.45;15.10;;;;;;;19.09;35.63;99741.88;5052085;28;20028;-39
2022/03/29 07:19:36;;;;;;;28.83;15.70;;;;;;;18.80;35.69;99728.75;5052325;28;20106;-38
2022/03/29 07:22:02;;;;;;;25.92;15.63;;;;;;;18.86;35.59;99733.09;5052197;28;20437;-38
2022/03/29 07:24:27;;;;;;;30.23;15.43;;;;;;;18.98;35.54;99732.91;5052218;28;20477;-38
2022/03/29 07:26:53;;;;;;;28.38;14.13;;;;;;;19.80;34.04;99721.75;5052384;28;20021;-38
2022/03/29 07:29:18;;;;;;;25.67;14.20;;;;;;;20.14;32.94;99727.53;5052298;28;20028;-38
2022/03/29 07:31:44;;;;;;;25.67;14.88;;;;;;;19.93;32.88;99726.66;5052185;28;20055;-36
2022/03/29 07:34:09;;;;;;;29.58;14.63;;;;;;;19.59;33.91;99735.16;5051968;28;20025;-37
2022/03/29 07:36:35;;;;;;;24.98;15.15;;;;;;;19.76;33.83;99723.38;5051822;28;20405;-37
2022/03/29 07:39:00;;;;;;;26.02;14.85;;;;;;;20.94;32.81;99720.84;5050990;28;20032;-37
2022/03/29 07:41:25;;;;;;;23.88;14.50;;;;;;;20.74;31.50;99722.47;5052097;28;20024;-38
2022/03/29 07:43:51;;;;;;;25.60;14.90;;;;;;;20.70;31.82;99716.78;5051590;28;20028;-38
2022/03/29 07:46:17;;;;;;;22.98;14.30;;;;;;;20.86;32.40;99717.59;5051624;28;20025;-36
2022/03/29 07:48:43;;;;;;;21.95;14.32;;;;;;;21.18;31.05;99716.47;5052050;28;20060;-37
2022/03/29 07:51:10;;;;;;;25.17;13.70;;;;;;;21.50;30.39;99715.31;5051810;28;20467;-37
2022/03/29 07:53:36;;;;;;;28.20;13.15;;;;;;;21.32;29.73;99705.84;5050560;28;20397;-37
2022/03/29 07:56:01;;;;;;;26.90;13.32;;;;;;;20.86;30.72;99712.19;5051644;28;20029;-37
2022/03/29 07:58:27;;;;;;;20.73;13.73;;;;;;;20.68;30.71;99705.44;5051916;28;20029;-39
2022/03/29 08:00:53;;;;;;;21.67;13.20;;;;;;;22.08;29.24;99701.19;5051558;28;20107;-37
2022/03/29 08:03:20;;;;;;;22.20;13.70;;;;;;;23.06;27.19;99690.44;5051898;28;20041;-37
2022/03/29 08:05:49;;;;;;;20.05;13.25;;;;;;;23.87;26.68;99693.25;5050784;28;20107;-38
2022/03/29 08:08:16;;;;;;;23.08;13.15;;;;;;;24.43;26.33;99688.91;5051755;28;20116;-38
2022/03/29 08:10:46;;;;;;;19.20;13.15;;;;;;;25.12;24.80;99688.25;5051444;28;20025;-37
2022/03/29 08:13:11;;;;;;;26.30;13.60;;;;;;;24.76;25.06;99688.91;5051176;28;20029;-38
2022/03/29 08:15:38;;;;;;;21.90;13.20;;;;;;;25.42;24.52;99692.31;5051524;28;20032;-38
2022/03/29 08:18:04;;;;;;;21.27;12.48;;;;;;;26.09;23.27;99685.47;5051409;28;20029;-37
2022/03/29 08:20:30;;;;;;;25.63;13.63;;;;;;;26.17;23.78;99676.53;5052464;28;20051;-37
2022/03/29 08:23:00;;;;;;;19.80;12.30;;;;;;;25.67;24.17;99674.63;5051830;28;20040;-37
2022/03/29 08:25:28;;;;;;;23.77;12.48;;;;;;;26.44;22.68;99669.34;5051489;28;20091;-38
2022/03/29 08:27:56;;;;;;;18.58;12.75;;;;;;;26.10;22.90;99670.69;5050669;28;20036;-37
2022/03/29 08:30:23;;;;;;;27.65;13.15;;;;;;;26.63;22.26;99667.22;5051107;28;20029;-37
2022/03/29 08:32:49;;;;;;;20.70;12.50;;;;;;;27.02;22.19;99660.19;5050761;28;20029;-37
2022/03/29 08:35:14;;;;;;;26.15;13.10;;;;;;;27.08;21.80;99652.69;5050992;28;20025;-38
2022/03/29 08:37:40;;;;;;;20.10;13.13;;;;;;;27.35;21.64;99648.13;5050710;28;20084;-37
2022/03/29 08:40:12;;;;;;;30.13;12.90;;;;;;;27.51;21.84;99641.06;5051241;28;20028;-37
2022/03/29 08:42:40;;;;;;;21.80;13.13;;;;;;;26.69;22.23;99641.44;5051118;28;20049;-37
2022/03/29 08:45:14;;;;;;;24.75;14.00;;;;;;;25.58;23.46;99632.06;5050647;28;20111;-38
2022/03/29 08:47:41;;;;;;;31.90;13.93;;;;;;;25.79;23.41;99633.22;5049962;28;20032;-36
2022/03/29 08:50:08;;;;;;;22.25;13.48;;;;;;;25.60;23.46;99621.66;5051003;28;20025;-37
2022/03/29 08:52:34;;;;;;;21.27;12.88;;;;;;;25.82;23.26;99616.25;5051007;28;20047;-38
2022/03/29 08:55:03;;;;;;;20.83;12.27;;;;;;;26.60;22.32;99615.19;5050931;28;20465;-35
2022/03/29 08:57:31;;;;;;;21.60;12.85;;;;;;;27.02;21.63;99618.44;5051040;28;20044;-38
2022/03/29 08:59:57;;;;;;;21.50;11.30;;;;;;;27.50;21.57;99607.47;5051004;28;20029;-38
2022/03/29 09:02:23;;;;;;;22.50;12.48;;;;;;;27.15;22.12;99616.69;5048890;28;20267;-38
2022/03/29 09:05:15;;;;;;;15.98;10.73;;;;;;;27.77;21.19;99610.25;5049867;28;20032;-38
2022/03/29 09:07:48;;;;;;;18.92;11.05;;;;;;;27.18;21.59;99599.69;5050448;28;20048;-38
2022/03/29 09:10:14;;;;;;;22.50;12.07;;;;;;;26.01;22.45;99588.03;5050133;28;20024;-38
2022/03/29 09:12:39;;;;;;;20.98;11.57;;;;;;;25.75;23.00;99588.63;5050321;28;20029;-38
2022/03/29 09:15:05;;;;;;;22.92;11.25;;;;;;;26.27;23.08;99589.03;5050167;28;20017;-37
2022/03/29 09:17:35;;;;;;;18.58;10.77;;;;;;;26.70;21.45;99583.00;5049415;28;20480;-37
2022/03/29 09:20:04;;;;;;;21.42;10.27;;;;;;;27.34;20.67;99578.22;5050041;28;20029;-37
2022/03/29 09:22:37;;;;;;;18.48;10.13;;;;;;;26.59;21.88;99573.47;5050156;28;20500;-37
2022/03/29 09:25:04;;;;;;;17.88;9.02;;;;;;;25.35;22.65;99561.19;5049904;28;20036;-38
2022/03/29 09:27:30;;;;;;;16.23;9.32;;;;;;;25.72;22.17;99561.97;5049902;28;20047;-38
2022/03/29 09:30:27;;;;;;;14.35;9.15;;;;;;;27.06;21.44;99553.88;5049548;28;20400;-37
2022/03/29 09:33:05;;;;;;;13.80;8.77;;;;;;;26.61;21.60;99546.69;5050018;28;20099;-37
2022/03/29 09:35:32;;;;;;;13.15;8.90;;;;;;;27.40;20.82;99555.09;5049930;28;20021;-37
2022/03/29 09:38:01;;;;;;;14.73;8.90;;;;;;;26.61;21.01;99543.16;5049885;28;20025;-38
2022/03/29 09:40:38;;;;;;;13.25;8.90;;;;;;;26.35;21.16;99541.09;5049966;28;20025;-38
2022/03/29 09:43:08;;;;;;;16.33;8.40;;;;;;;27.03;20.88;99533.47;5050113;28;20021;-37
2022/03/29 09:45:41;;;;;;;15.50;8.25;;;;;;;27.17;20.51;99535.25;5049716;28;20079;-37
2022/03/29 09:48:29;;;;;;;14.45;8.48;;;;;;;27.30;20.67;99528.88;5049454;28;20120;-38
2022/03/29 09:51:16;;;;;;;13.02;7.90;;;;;;;27.91;20.52;99530.81;5049638;28;20024;-38
2022/03/29 09:53:51;;;;;;;13.82;8.52;;;;;;;27.94;19.97;99528.22;5049777;28;20036;-37
2022/03/29 09:56:34;;;;;;;14.63;8.88;;;;;;;28.27;19.66;99516.72;5050085;28;20449;-37
2022/03/29 09:59:10;;;;;;;13.20;9.23;;;;;;;28.66;19.50;99515.59;5049842;28;20091;-39
2022/03/29 10:01:48;;;;;;;15.15;8.43;;;;;;;27.93;20.22;99506.66;5049010;28;20484;-38
2022/03/29 10:04:16;;;;;;;11.55;7.78;;;;;;;28.04;19.61;99495.06;5049706;28;20033;-38
2022/03/29 10:06:43;;;;;;;12.80;8.45;;;;;;;26.51;21.26;99487.72;5049945;28;20436;-37
2022/03/29 10:09:26;;;;;;;12.32;7.72;;;;;;;26.91;20.76;99476.75;5049935;28;20025;-38
2022/03/29 10:11:55;;;;;;;14.00;7.78;;;;;;;26.77;20.80;99465.19;5049478;28;20059;-39
2022/03/29 10:14:22;;;;;;;;;;;;;;;26.97;20.54;99468.44;5049580;28;20025;-37
2022/03/29 10:16:50;;;;;;;14.82;8.77;;;;;;;26.59;21.17;99447.97;5049785;28;19917;-37
2022/03/29 10:19:18;;;;;;;16.73;8.93;;;;;;;25.99;21.96;99465.69;5049714;28;20025;-37
2022/03/29 10:21:45;;;;;;;23.52;9.45;;;;;;;25.81;22.11;99462.03;5049852;28;20104;-38
2022/03/29 10:24:15;;;;;;;15.93;8.85;;;;;;;26.32;21.66;99457.16;5049365;28;20029;-37
2022/03/29 10:26:47;;;;;;;14.32;9.02;;;;;;;26.04;21.81;99454.63;5049679;28;20090;-38
2022/03/29 10:29:13;;;;;;;13.23;9.50;;;;;;;24.99;22.54;99450.34;5050997;28;20056;-38
2022/03/29 10:31:48;;;;;;;17.70;9.23;;;;;;;25.56;22.40;99438.97;5052982;28;20492;-38
2022/03/29 10:34:19;;;;;;;17.50;8.77;;;;;;;26.55;21.49;99433.31;5052877;28;20416;-40
2022/03/29 10:37:00;;;;;;;16.63;8.95;;;;;;;24.89;22.97;99442.41;5053183;28;20471;-37
2022/03/29 10:39:45;;;;;;;24.20;9.20;;;;;;;25.48;22.63;99431.53;5053041;28;20025;-38
2022/03/29 10:42:29;;;;;;;17.98;7.93;;;;;;;26.39;21.77;99424.78;5053079;28;20063;-38
2022/03/29 10:45:05;;;;;;;12.45;8.20;;;;;;;26.25;21.23;99422.16;5052334;28;20071;-39
2022/03/29 10:47:32;;;;;;;15.25;8.63;;;;;;;25.97;22.07;99423.50;5052876;28;20090;-39
2022/03/29 10:49:58;;;;;;;15.65;8.68;;;;;;;26.63;21.14;99410.72;5053023;28;20028;-38
2022/03/29 10:52:23;;;;;;;13.02;7.90;;;;;;;26.69;21.23;99417.66;5052914;28;20029;-38
2022/03/29 10:54:50;;;;;;;14.95;8.25;;;;;;;27.22;20.53;99410.28;5052500;28;20036;-38
2022/03/29 10:57:24;;;;;;;15.60;8.23;;;;;;;26.89;20.66;99410.78;5052501;28;20031;-39
2022/03/29 11:00:11;;;;;;;14.55;8.10;;;;;;;26.77;21.02;99404.31;5052910;28;20037;-37
2022/03/29 11:02:37;;;;;;;14.07;8.13;;;;;;;26.84;20.88;99400.00;5048775;28;20144;-38
2022/03/29 11:05:06;;;;;;;22.95;8.43;;;;;;;26.59;20.38;99393.41;5052685;28;20025;-38
2022/03/29 11:07:36;;;;;;;16.42;8.35;;;;;;;25.98;21.58;99389.69;5052578;28;20041;-38
2022/03/29 11:10:11;;;;;;;11.77;7.70;;;;;;;26.24;21.31;99387.84;5052670;28;20531;-37
2022/03/29 11:12:44;;;;;;;15.50;8.05;;;;;;;26.40;20.75;99382.75;5052345;28;20025;-37
2022/03/29 11:15:25;;;;;;;14.05;8.05;;;;;;;25.96;21.18;99378.28;5052666;28;20037;-37
2022/03/29 11:17:55;;;;;;;14.13;8.07;;;;;;;25.88;21.36;99366.22;5052608;28;20111;-37
2022/03/29 11:20:32;;;;;;;15.02;7.78;;;;;;;26.48;20.62;99381.97;5052816;28;20025;-38
2022/03/29 11:23:04;;;;;;;16.05;7.90;;;;;;;27.06;20.31;99366.28;5052453;28;20025;-37
2022/03/29 11:25:50;;;;;;;13.82;7.50;;;;;;;27.46;20.01;99360.63;5052485;28;20416;-38
2022/03/29 11:28:17;;;;;;;23.70;8.40;;;;;;;27.53;20.33;99356.59;5051558;28;20524;-38
2022/03/29 11:30:43;;;;;;;15.20;7.90;;;;;;;27.83;19.72;99347.31;5052337;28;20032;-38
2022/03/29 11:33:10;;;;;;;18.35;7.85;;;;;;;28.12;19.45;99348.50;5052097;28;20376;-38